createdAt,value
2018-01-18T00:00:08.480Z,2.40
2018-01-18T00:02:38.327Z,2.40
2018-01-18T00:05:12.814Z,2.10
2018-01-18T00:07:41.145Z,2.00
2018-01-18T00:10:13.287Z,2.00
2018-01-18T00:12:41.546Z,2.00
2018-01-18T00:15:09.291Z,2.00
2018-01-18T00:17:37.400Z,2.00
2018-01-18T00:20:06.984Z,2.10
2018-01-18T00:22:35.992Z,2.00
2018-01-18T00:25:06.560Z,2.10
2018-01-18T00:27:34.194Z,2.00
2018-01-18T00:30:03.056Z,2.00
2018-01-18T00:32:31.475Z,2.10
2018-01-18T00:35:00.842Z,2.20
2018-01-18T00:37:32.200Z,2.30
2018-01-18T00:40:03.772Z,2.30
2018-01-18T00:42:32.862Z,2.30
2018-01-18T00:45:01.334Z,2.30
2018-01-18T00:47:30.478Z,2.60
2018-01-18T00:49:59.418Z,2.60
2018-01-18T00:52:28.201Z,2.40
2018-01-18T00:55:01.358Z,2.30
2018-01-18T00:57:32.374Z,2.40
2018-01-18T01:00:03.302Z,2.40
2018-01-18T01:02:32.501Z,2.30
2018-01-18T01:05:04.318Z,2.40
2018-01-18T01:07:34.743Z,2.40
2018-01-18T01:10:03.578Z,2.40
2018-01-18T01:12:33.588Z,2.30
2018-01-18T01:15:01.861Z,2.30
2018-01-18T01:17:31.035Z,2.40
2018-01-18T01:20:03.538Z,2.50
2018-01-18T01:22:35.429Z,2.60
2018-01-18T01:25:04.900Z,2.50
2018-01-18T01:27:34.437Z,2.50
2018-01-18T01:30:04.178Z,2.50
2018-01-18T01:32:37.023Z,2.40
2018-01-18T01:35:06.432Z,2.40
2018-01-18T01:37:36.042Z,2.50
2018-01-18T01:40:05.388Z,2.50
2018-01-18T01:42:34.892Z,2.50
2018-01-18T01:45:03.627Z,2.70
2018-01-18T01:47:32.082Z,2.60
2018-01-18T01:50:06.428Z,2.70
2018-01-18T01:52:36.488Z,2.70
2018-01-18T01:55:05.736Z,2.90
2018-01-18T01:57:36.104Z,2.90
2018-01-18T02:00:04.560Z,2.80
2018-01-18T02:02:32.490Z,2.70
2018-01-18T02:05:01.256Z,2.90
2018-01-18T02:07:33.924Z,3.00
2018-01-18T02:10:02.406Z,3.10
2018-01-18T02:12:33.992Z,2.90
2018-01-18T02:15:03.410Z,2.90
2018-01-18T02:17:31.963Z,2.80
2018-01-18T02:20:00.820Z,2.90
2018-01-18T02:22:32.917Z,3.00
2018-01-18T02:25:01.307Z,3.10
2018-01-18T02:27:29.984Z,3.20
2018-01-18T02:30:02.236Z,3.10
2018-01-18T02:32:33.861Z,3.30
2018-01-18T02:35:03.057Z,3.00
2018-01-18T02:37:32.419Z,3.00
2018-01-18T02:40:02.912Z,3.00
2018-01-18T02:42:32.475Z,2.90
2018-01-18T02:45:01.243Z,2.60
2018-01-18T02:47:33.691Z,2.50
2018-01-18T02:50:02.834Z,2.70
2018-01-18T02:52:33.282Z,2.70
2018-01-18T02:55:01.211Z,2.70
2018-01-18T02:57:31.638Z,2.90
2018-01-18T02:59:59.804Z,3.00
2018-01-18T03:02:30.436Z,2.80
2018-01-18T03:05:02.750Z,2.80
2018-01-18T03:07:30.931Z,2.80
2018-01-18T03:09:59.342Z,2.80
2018-01-18T03:12:30.938Z,2.80
2018-01-18T03:14:59.544Z,2.70
2018-01-18T03:17:29.678Z,2.80
2018-01-18T03:19:58.613Z,2.90
2018-01-18T03:22:30.578Z,3.20
2018-01-18T03:24:59.889Z,3.30
2018-01-18T03:27:29.634Z,3.10
2018-01-18T03:30:01.482Z,3.00
2018-01-18T03:32:29.360Z,2.90
2018-01-18T03:35:01.544Z,2.90
2018-01-18T03:37:30.966Z,3.00
2018-01-18T03:40:00.276Z,3.00
2018-01-18T03:42:30.419Z,3.00
2018-01-18T03:45:01.867Z,3.00
2018-01-18T03:47:32.752Z,3.20
2018-01-18T03:50:00.671Z,3.20
2018-01-18T03:52:30.286Z,3.50
2018-01-18T03:54:58.886Z,3.50
2018-01-18T03:57:27.598Z,3.60
2018-01-18T03:59:56.183Z,3.40
2018-01-18T04:02:25.517Z,3.60
2018-01-18T04:04:53.765Z,3.70
2018-01-18T04:07:27.530Z,3.70
2018-01-18T04:09:56.862Z,3.40
2018-01-18T04:12:26.967Z,3.60
2018-01-18T04:14:56.086Z,3.60
2018-01-18T04:17:25.507Z,3.60
2018-01-18T04:19:53.579Z,3.60
2018-01-18T04:22:22.648Z,3.70
2018-01-18T04:24:52.040Z,3.60
2018-01-18T04:27:20.264Z,3.60
2018-01-18T04:29:48.389Z,3.50
2018-01-18T04:32:16.158Z,3.40
2018-01-18T04:34:44.530Z,3.30
2018-01-18T04:37:14.317Z,3.40
2018-01-18T04:39:53.969Z,3.30
2018-01-18T04:42:23.845Z,3.10
2018-01-18T04:44:54.226Z,3.30
2018-01-18T04:47:26.489Z,3.30
2018-01-18T04:49:54.756Z,3.50
2018-01-18T04:52:22.822Z,3.50
2018-01-18T04:54:52.301Z,3.60
2018-01-18T04:57:20.179Z,3.60
2018-01-18T04:59:48.808Z,3.90
2018-01-18T05:04:51.742Z,4.00
2018-01-18T05:07:19.723Z,4.00
2018-01-18T05:09:50.796Z,4.00
2018-01-18T05:12:20.040Z,4.10
2018-01-18T05:14:47.770Z,4.10
2018-01-18T05:17:15.376Z,4.10
2018-01-18T05:19:46.048Z,4.20
2018-01-18T05:22:13.856Z,4.30
2018-01-18T05:24:42.353Z,4.40
2018-01-18T05:27:10.984Z,4.40
2018-01-18T05:29:39.637Z,4.30
2018-01-18T05:32:09.701Z,4.30
2018-01-18T05:34:39.353Z,4.20
2018-01-18T05:37:09.607Z,4.10
2018-01-18T05:39:37.504Z,4.30
2018-01-18T05:42:06.445Z,4.40
2018-01-18T05:44:34.512Z,4.40
2018-01-18T05:47:04.145Z,4.40
2018-01-18T05:49:32.650Z,4.30
2018-01-18T05:52:00.548Z,4.30
2018-01-18T05:54:31.792Z,4.50
2018-01-18T05:57:01.831Z,4.60
2018-01-18T05:59:36.792Z,4.50
2018-01-18T06:02:09.305Z,4.60
2018-01-18T06:04:39.677Z,4.60
2018-01-18T06:09:57.842Z,4.60
2018-01-18T06:12:28.814Z,4.70
2018-01-18T06:14:58.118Z,4.70
2018-01-18T06:17:26.166Z,4.70
2018-01-18T06:19:57.208Z,4.60
2018-01-18T06:22:29.317Z,4.50
2018-01-18T06:24:59.145Z,4.50
2018-01-18T06:27:27.539Z,4.40
2018-01-18T06:32:37.524Z,4.50
2018-01-18T06:35:06.893Z,4.50
2018-01-18T06:40:15.358Z,4.60
2018-01-18T06:42:50.024Z,4.50
2018-01-18T06:45:17.661Z,4.50
2018-01-18T06:47:52.450Z,4.30
2018-01-18T06:50:24.703Z,4.40
2018-01-18T06:53:00.257Z,4.40
2018-01-18T06:55:30.603Z,4.30
2018-01-18T06:58:01.898Z,4.30
2018-01-18T07:00:31.103Z,4.30
2018-01-18T07:02:58.849Z,4.20
2018-01-18T07:05:30.394Z,4.20
2018-01-18T07:08:02.489Z,4.40
2018-01-18T07:10:31.792Z,4.40
2018-01-18T07:13:16.152Z,4.30
2018-01-18T07:15:48.043Z,4.30
2018-01-18T07:18:18.395Z,4.30
2018-01-18T07:20:53.467Z,4.30
2018-01-18T07:23:21.992Z,4.60
2018-01-18T07:25:54.093Z,4.60
2018-01-18T07:28:21.823Z,4.70
2018-01-18T07:30:56.573Z,4.70
2018-01-18T07:33:27.133Z,4.80
2018-01-18T07:35:59.869Z,4.70
2018-01-18T07:38:29.844Z,4.60
2018-01-18T07:40:58.969Z,4.60
2018-01-18T07:43:32.456Z,4.60
2018-01-18T07:46:00.977Z,4.70
2018-01-18T07:48:32.166Z,4.80
2018-01-18T07:50:59.927Z,4.90
2018-01-18T07:53:29.274Z,4.90
2018-01-18T07:55:58.220Z,4.90
2018-01-18T07:58:26.082Z,5.00
2018-01-18T08:00:57.127Z,5.00
2018-01-18T08:03:31.364Z,5.00
2018-01-18T08:06:01.852Z,5.00
2018-01-18T08:08:30.899Z,4.90
2018-01-18T08:11:01.100Z,4.90
2018-01-18T08:13:31.879Z,5.00
2018-01-18T08:16:00.610Z,5.00
2018-01-18T08:18:29.519Z,5.10
2018-01-18T08:20:58.927Z,5.10
2018-01-18T08:23:28.705Z,5.20
2018-01-18T08:28:32.627Z,5.50
2018-01-18T08:31:02.766Z,5.50
2018-01-18T08:33:30.978Z,5.50
2018-01-18T08:35:58.910Z,5.50
2018-01-18T08:38:26.732Z,5.60
2018-01-18T08:40:55.597Z,5.60
2018-01-18T08:43:24.291Z,6.30
2018-01-18T08:45:53.671Z,5.50
2018-01-18T08:48:22.395Z,5.60
2018-01-18T08:50:51.325Z,5.60
2018-01-18T08:53:22.156Z,5.70
2018-01-18T08:55:52.616Z,5.90
2018-01-18T08:58:21.341Z,6.00
2018-01-18T09:00:55.405Z,5.90
2018-01-18T09:03:23.774Z,5.90
2018-01-18T09:05:57.029Z,6.00
2018-01-18T09:08:26.600Z,6.00
2018-01-18T09:10:56.318Z,6.00
2018-01-18T09:13:27.060Z,6.10
2018-01-18T09:15:57.412Z,6.10
2018-01-18T09:18:25.088Z,6.20
2018-01-18T09:20:57.435Z,6.20
2018-01-18T09:23:27.756Z,6.20
2018-01-18T09:25:59.952Z,6.20
2018-01-18T09:28:29.786Z,6.10
2018-01-18T09:30:58.457Z,6.00
2018-01-18T09:33:27.507Z,6.30
2018-01-18T09:35:56.301Z,6.40
2018-01-18T09:38:24.081Z,6.40
2018-01-18T09:40:52.908Z,6.50
2018-01-18T09:43:20.654Z,6.30
2018-01-18T09:45:49.411Z,6.30
2018-01-18T09:48:18.824Z,6.40
2018-01-18T09:50:50.304Z,6.50
2018-01-18T09:53:22.082Z,6.60
2018-01-18T09:55:50.079Z,6.60
2018-01-18T09:58:18.643Z,6.40
2018-01-18T10:00:48.227Z,6.60
2018-01-18T10:03:16.962Z,6.60
2018-01-18T10:05:44.915Z,6.90
2018-01-18T10:08:13.944Z,6.80
2018-01-18T10:13:17.234Z,7.10
2018-01-18T10:15:48.276Z,7.20
2018-01-18T10:18:15.962Z,7.20
2018-01-18T10:20:43.605Z,7.50
2018-01-18T10:23:11.824Z,7.50
2018-01-18T10:25:40.379Z,7.60
2018-01-18T10:28:07.979Z,7.50
2018-01-18T10:30:35.879Z,7.60
2018-01-18T10:33:07.238Z,7.80
2018-01-18T10:35:36.042Z,8.00
2018-01-18T10:38:06.825Z,7.70
2018-01-18T10:40:34.610Z,7.90
2018-01-18T10:43:09.991Z,7.90
2018-01-18T10:45:41.526Z,8.00
2018-01-18T10:48:09.926Z,8.20
2018-01-18T10:50:39.415Z,8.30
2018-01-18T10:53:09.000Z,8.30
2018-01-18T10:55:44.149Z,8.30
2018-01-18T10:58:13.578Z,8.20
2018-01-18T11:00:45.049Z,8.90
2018-01-18T11:03:13.328Z,8.20
2018-01-18T11:05:42.651Z,8.40
2018-01-18T11:08:12.269Z,8.50
2018-01-18T11:10:40.872Z,9.20
2018-01-18T11:13:09.424Z,8.70
2018-01-18T11:15:37.401Z,8.50
2018-01-18T11:18:06.558Z,8.60
2018-01-18T11:20:37.230Z,8.60
2018-01-18T11:23:07.347Z,8.60
2018-01-18T11:25:36.005Z,8.60
2018-01-18T11:28:06.258Z,8.70
2018-01-18T11:30:36.295Z,8.80
2018-01-18T11:33:05.160Z,8.80
2018-01-18T11:35:34.948Z,8.70
2018-01-18T11:38:04.111Z,8.60
2018-01-18T11:40:32.431Z,8.70
2018-01-18T11:43:02.609Z,8.70
2018-01-18T11:45:30.550Z,8.90
2018-01-18T11:47:59.295Z,9.10
2018-01-18T11:50:27.218Z,9.30
2018-01-18T11:52:55.846Z,9.10
2018-01-18T11:55:26.085Z,9.20
2018-01-18T11:57:56.547Z,9.20
2018-01-18T12:00:27.862Z,9.10
2018-01-18T12:02:57.537Z,9.00
2018-01-18T12:05:26.840Z,8.90
2018-01-18T12:07:54.435Z,8.90
2018-01-18T12:10:26.497Z,8.80
2018-01-18T12:12:55.336Z,8.80
2018-01-18T12:15:23.761Z,8.80
2018-01-18T12:17:53.674Z,8.80
2018-01-18T12:20:23.186Z,8.70
2018-01-18T12:22:50.878Z,8.60
2018-01-18T12:25:19.391Z,8.70
2018-01-18T12:27:47.488Z,8.80
2018-01-18T12:30:16.025Z,8.80
2018-01-18T12:32:44.561Z,8.80
2018-01-18T12:35:12.535Z,8.90
2018-01-18T12:37:41.213Z,9.00
2018-01-18T12:40:10.546Z,9.10
2018-01-18T12:42:41.212Z,8.90
2018-01-18T12:45:09.188Z,9.00
2018-01-18T12:47:39.298Z,9.00
2018-01-18T12:50:09.963Z,9.00
2018-01-18T12:52:37.892Z,9.10
2018-01-18T12:55:06.729Z,9.10
2018-01-18T12:57:36.775Z,9.20
2018-01-18T13:00:05.611Z,9.20
2018-01-18T13:02:35.562Z,9.20
2018-01-18T13:05:03.944Z,9.10
2018-01-18T13:07:31.623Z,9.10
2018-01-18T13:09:59.752Z,9.10
2018-01-18T13:12:27.683Z,9.20
2018-01-18T13:14:56.132Z,9.20
2018-01-18T13:17:27.758Z,9.20
2018-01-18T13:19:56.276Z,9.20
2018-01-18T13:22:27.766Z,9.30
2018-01-18T13:24:57.862Z,9.30
2018-01-18T13:27:26.807Z,10.20
2018-01-18T13:29:54.476Z,9.30
2018-01-18T13:32:23.830Z,9.50
2018-01-18T13:34:51.839Z,9.50
2018-01-18T13:37:20.428Z,9.60
2018-01-18T13:39:49.461Z,9.60
2018-01-18T13:42:17.263Z,9.50
2018-01-18T13:44:45.031Z,9.60
2018-01-18T13:47:12.789Z,9.40
2018-01-18T13:49:42.954Z,9.50
2018-01-18T13:52:12.262Z,9.50
2018-01-18T13:54:40.952Z,9.40
2018-01-18T13:57:10.143Z,9.40
2018-01-18T13:59:39.573Z,9.50
2018-01-18T14:02:07.529Z,9.50
2018-01-18T14:04:37.547Z,9.60
2018-01-18T14:07:07.095Z,9.80
2018-01-18T14:09:35.916Z,9.90
2018-01-18T14:12:05.455Z,9.90
2018-01-18T14:14:34.435Z,9.90
2018-01-18T14:17:02.103Z,9.90
2018-01-18T14:19:29.933Z,9.80
2018-01-18T14:21:57.843Z,10.00
2018-01-18T14:24:29.198Z,10.00
2018-01-18T14:26:57.767Z,10.00
2018-01-18T14:29:26.441Z,9.90
2018-01-18T14:31:54.787Z,9.90
2018-01-18T14:34:23.332Z,10.00
2018-01-18T14:36:51.249Z,10.00
2018-01-18T14:39:19.204Z,9.90
2018-01-18T14:41:47.136Z,9.90
2018-01-18T14:44:15.718Z,10.10
2018-01-18T14:46:48.157Z,10.10
2018-01-18T14:49:16.931Z,10.10
2018-01-18T14:51:44.592Z,10.00
2018-01-18T14:54:13.377Z,10.00
2018-01-18T14:56:42.179Z,9.90
2018-01-18T14:59:11.382Z,10.00
2018-01-18T15:01:39.880Z,10.00
2018-01-18T15:04:09.281Z,10.10
2018-01-18T15:06:39.054Z,10.00
2018-01-18T15:09:07.767Z,10.00
2018-01-18T15:11:35.450Z,9.90
2018-01-18T15:14:04.036Z,9.90
2018-01-18T15:16:32.803Z,9.90
2018-01-18T15:19:00.900Z,9.80
2018-01-18T15:21:29.477Z,9.90
2018-01-18T15:23:57.489Z,9.70
2018-01-18T15:26:26.419Z,9.60
2018-01-18T15:28:57.280Z,9.50
2018-01-18T15:31:26.875Z,9.50
2018-01-18T15:33:58.054Z,9.70
2018-01-18T15:36:26.675Z,9.30
2018-01-18T15:38:54.909Z,9.50
2018-01-18T15:41:24.655Z,9.40
2018-01-18T15:43:54.850Z,9.50
2018-01-18T15:46:23.488Z,9.50
2018-01-18T15:48:52.819Z,9.60
2018-01-18T15:51:20.566Z,9.60
2018-01-18T15:53:49.383Z,9.50
2018-01-18T15:56:16.911Z,9.50
2018-01-18T15:58:46.190Z,9.70
2018-01-18T16:01:17.632Z,9.80
2018-01-18T16:03:45.716Z,9.80
2018-01-18T16:06:13.722Z,9.80
2018-01-18T16:08:42.810Z,9.80
2018-01-18T16:11:11.548Z,9.90
2018-01-18T16:13:40.257Z,9.80
2018-01-18T16:16:07.880Z,9.80
2018-01-18T16:18:36.586Z,9.80
2018-01-18T16:21:05.813Z,9.90
2018-01-18T16:23:36.015Z,9.80
2018-01-18T16:26:04.686Z,9.80
2018-01-18T16:28:33.525Z,9.80
2018-01-18T16:31:01.955Z,9.70
2018-01-18T16:33:35.168Z,9.70
2018-01-18T16:36:03.446Z,9.80
2018-01-18T16:38:33.392Z,9.80
2018-01-18T16:41:01.211Z,9.60
2018-01-18T16:43:30.446Z,9.70
2018-01-18T16:45:58.944Z,9.60
2018-01-18T16:48:27.664Z,9.80
2018-01-18T16:50:56.952Z,9.80
2018-01-18T16:53:25.787Z,11.10
2018-01-18T16:55:54.304Z,10.10
2018-01-18T16:58:22.364Z,10.10
2018-01-18T17:00:50.486Z,10.10
2018-01-18T17:05:53.575Z,10.00
2018-01-18T17:08:23.055Z,9.90
2018-01-18T17:10:51.007Z,8.00
2018-01-18T17:13:19.628Z,9.90
2018-01-18T17:15:47.568Z,9.90
2018-01-18T17:18:16.597Z,10.10
2018-01-18T17:20:45.379Z,10.10
2018-01-18T17:23:14.609Z,10.20
2018-01-18T17:25:42.330Z,10.10
2018-01-18T17:28:12.899Z,10.10
2018-01-18T17:30:40.918Z,10.20
2018-01-18T17:33:13.693Z,10.30
2018-01-18T17:35:43.430Z,10.30
2018-01-18T17:38:15.232Z,10.20
2018-01-18T17:40:45.733Z,10.10
2018-01-18T17:45:52.273Z,10.00
2018-01-18T17:48:22.036Z,10.00
2018-01-18T17:50:49.914Z,9.90
2018-01-18T17:53:21.476Z,9.90
2018-01-18T17:55:51.004Z,9.90
2018-01-18T17:58:20.119Z,10.10
2018-01-18T18:00:49.330Z,10.20
2018-01-18T18:03:17.119Z,10.20
2018-01-18T18:05:48.292Z,10.20
2018-01-18T18:08:17.686Z,10.10
2018-01-18T18:10:49.557Z,9.20
2018-01-18T18:13:19.452Z,10.80
2018-01-18T18:15:48.959Z,10.20
2018-01-18T18:18:16.905Z,10.20
2018-01-18T18:20:45.719Z,10.20
2018-01-18T18:23:15.050Z,10.10
2018-01-18T18:25:47.222Z,10.00
2018-01-18T18:28:15.064Z,10.00
2018-01-18T18:30:43.315Z,10.30
2018-01-18T18:33:12.753Z,10.30
2018-01-18T18:35:40.659Z,10.20
2018-01-18T18:38:09.851Z,10.10
2018-01-18T18:40:37.602Z,10.20
2018-01-18T18:43:09.068Z,10.20
2018-01-18T18:45:36.767Z,10.20
2018-01-18T18:48:04.527Z,10.40
2018-01-18T18:50:36.072Z,10.00
2018-01-18T18:53:05.234Z,10.20
2018-01-18T18:55:33.826Z,10.20
2018-01-18T18:58:02.421Z,10.10
2018-01-18T19:00:33.452Z,10.00
2018-01-18T19:03:01.755Z,9.70
2018-01-18T19:05:37.608Z,9.80
2018-01-18T19:08:08.294Z,9.70
2018-01-18T19:10:38.231Z,9.60
2018-01-18T19:13:07.928Z,9.60
2018-01-18T19:15:44.461Z,9.80
2018-01-18T19:18:17.212Z,9.80
2018-01-18T19:20:46.193Z,10.60
2018-01-18T19:23:17.723Z,9.70
2018-01-18T19:25:46.608Z,9.70
2018-01-18T19:28:14.748Z,9.90
2018-01-18T19:30:47.948Z,9.90
2018-01-18T19:33:17.866Z,9.70
2018-01-18T19:35:50.767Z,9.80
2018-01-18T19:38:24.192Z,9.70
2018-01-18T19:40:56.709Z,9.90
2018-01-18T19:46:01.160Z,9.70
2018-01-18T19:48:30.174Z,9.50
2018-01-18T19:51:00.886Z,9.40
2018-01-18T19:53:28.976Z,9.30
2018-01-18T19:55:57.416Z,9.20
2018-01-18T19:58:28.837Z,9.30
2018-01-18T20:00:56.501Z,9.50
2018-01-18T20:03:25.711Z,9.40
2018-01-18T20:05:53.294Z,9.30
2018-01-18T20:08:20.951Z,9.40
2018-01-18T20:10:49.069Z,9.30
2018-01-18T20:13:18.745Z,9.30
2018-01-18T20:15:47.556Z,9.40
2018-01-18T20:18:16.071Z,9.50
2018-01-18T20:20:44.258Z,9.60
2018-01-18T20:23:12.783Z,9.60
2018-01-18T20:25:40.991Z,9.70
2018-01-18T20:28:09.194Z,9.80
2018-01-18T20:30:38.831Z,9.90
2018-01-18T20:33:07.192Z,10.00
2018-01-18T20:35:34.634Z,10.00
2018-01-18T20:38:02.123Z,9.90
2018-01-18T20:40:29.590Z,9.50
2018-01-18T20:42:57.837Z,9.10
2018-01-18T20:45:25.288Z,9.00
2018-01-18T20:47:52.774Z,8.70
2018-01-18T20:50:20.599Z,8.40
2018-01-18T20:52:48.063Z,8.40
2018-01-18T20:55:15.554Z,8.40
2018-01-18T20:57:43.052Z,8.40
2018-01-18T21:00:10.491Z,8.30
2018-01-18T21:02:37.998Z,8.30
2018-01-18T21:05:05.442Z,8.10
2018-01-18T21:07:32.916Z,8.10
2018-01-18T21:10:00.363Z,8.10
2018-01-18T21:12:27.811Z,8.10
2018-01-18T21:14:55.298Z,8.10
2018-01-18T21:17:22.731Z,8.10
2018-01-18T21:19:50.183Z,8.10
2018-01-18T21:22:18.081Z,8.20
2018-01-18T21:24:45.558Z,8.10
2018-01-18T21:27:13.804Z,8.20
2018-01-18T21:29:41.237Z,8.10
2018-01-18T21:32:08.735Z,8.20
2018-01-18T21:34:36.197Z,8.20
2018-01-18T21:37:04.403Z,7.90
2018-01-18T21:39:31.847Z,7.80
2018-01-18T21:41:59.370Z,7.90
2018-01-18T21:44:26.799Z,7.50
2018-01-18T21:46:54.650Z,7.50
2018-01-18T21:49:22.500Z,7.50
2018-01-18T21:51:51.071Z,7.30
2018-01-18T21:54:18.531Z,7.20
2018-01-18T21:56:45.966Z,7.30
2018-01-18T21:59:14.190Z,7.40
2018-01-18T22:01:41.628Z,7.30
2018-01-18T22:04:09.137Z,7.10
2018-01-18T22:06:36.607Z,7.00
2018-01-18T22:09:04.070Z,6.90
2018-01-18T22:11:32.271Z,6.70
2018-01-18T22:13:59.726Z,6.70
2018-01-18T22:16:27.167Z,6.60
2018-01-18T22:18:54.624Z,6.70
2018-01-18T22:21:22.072Z,6.60
2018-01-18T22:23:50.291Z,6.70
2018-01-18T22:26:17.728Z,6.60
2018-01-18T22:28:45.220Z,6.70
2018-01-18T22:31:12.759Z,6.70
2018-01-18T22:33:40.190Z,6.80
2018-01-18T22:36:07.632Z,6.70
2018-01-18T22:38:35.844Z,6.70
2018-01-18T22:41:03.287Z,6.70
2018-01-18T22:43:30.729Z,6.70
2018-01-18T22:45:58.170Z,6.60
2018-01-18T22:48:26.381Z,6.60
2018-01-18T22:50:53.826Z,8.20
2018-01-18T22:53:21.324Z,6.80
2018-01-18T22:55:49.167Z,6.10
2018-01-18T22:58:16.616Z,6.80
2018-01-18T23:00:44.072Z,7.00
2018-01-18T23:03:11.537Z,7.00
2018-01-18T23:05:38.984Z,7.10
2018-01-18T23:08:06.512Z,6.90
2018-01-18T23:10:33.974Z,6.80
2018-01-18T23:13:01.423Z,6.60
2018-01-18T23:15:29.635Z,6.40
2018-01-18T23:17:57.076Z,6.50
2018-01-18T23:20:24.523Z,6.40
2018-01-18T23:22:51.985Z,6.30
2018-01-18T23:25:19.421Z,6.30
2018-01-18T23:27:47.633Z,6.10
2018-01-18T23:30:15.420Z,5.90
2018-01-18T23:32:42.892Z,6.00
2018-01-18T23:35:10.420Z,6.10
2018-01-18T23:37:37.864Z,6.10
2018-01-18T23:40:05.299Z,6.10
2018-01-18T23:42:32.761Z,6.00
2018-01-18T23:45:00.214Z,5.40
2018-01-18T23:47:27.658Z,5.30
2018-01-18T23:49:55.871Z,5.20
2018-01-18T23:52:23.322Z,4.90
2018-01-18T23:54:51.245Z,4.90
2018-01-18T23:57:19.462Z,4.90
2018-01-18T23:59:46.930Z,4.90
